createdAt,value
2017-10-14T00:00:32.170Z,952.5
2017-10-14T00:01:40.249Z,952.5
2017-10-14T00:02:48.337Z,952.5
2017-10-14T00:03:56.482Z,952.5
2017-10-14T00:05:04.512Z,952.5
2017-10-14T00:06:12.600Z,952.6
2017-10-14T00:07:20.686Z,952.5
2017-10-14T00:08:28.775Z,952.5
2017-10-14T00:09:36.916Z,952.5
2017-10-14T00:10:45.056Z,952.6
2017-10-14T00:11:53.181Z,952.6
2017-10-14T00:13:01.298Z,952.6
2017-10-14T00:14:09.345Z,952.6
2017-10-14T00:15:19.018Z,952.5
2017-10-14T00:16:25.427Z,952.6
2017-10-14T00:17:33.483Z,952.6
2017-10-14T00:18:41.575Z,952.5
2017-10-14T00:19:49.823Z,952.6
2017-10-14T00:20:57.803Z,952.6
2017-10-14T00:22:05.835Z,952.6
2017-10-14T00:23:13.923Z,952.6
2017-10-14T00:24:22.058Z,952.5
2017-10-14T00:25:30.191Z,952.6
2017-10-14T00:26:38.305Z,952.5
2017-10-14T00:27:46.273Z,952.6
2017-10-14T00:28:54.361Z,952.5
2017-10-14T00:30:02.506Z,952.5
2017-10-14T00:31:10.532Z,952.5
2017-10-14T00:32:18.681Z,952.5
2017-10-14T00:33:27.325Z,952.5
2017-10-14T00:34:34.796Z,952.5
2017-10-14T00:35:42.886Z,952.5
2017-10-14T00:36:50.970Z,952.5
2017-10-14T00:37:59.178Z,952.4
2017-10-14T00:39:07.392Z,952.4
2017-10-14T00:40:15.234Z,952.4
2017-10-14T00:41:23.323Z,952.4
2017-10-14T00:42:31.405Z,952.4
2017-10-14T00:43:39.616Z,952.4
2017-10-14T00:44:47.583Z,952.4
2017-10-14T00:45:55.726Z,952.4
2017-10-14T00:47:03.760Z,952.4
2017-10-14T00:48:11.848Z,952.4
2017-10-14T00:49:19.988Z,952.4
2017-10-14T00:50:28.017Z,952.4
2017-10-14T00:51:36.106Z,952.4
2017-10-14T00:52:44.194Z,952.4
2017-10-14T00:53:52.281Z,952.4
2017-10-14T00:55:00.490Z,952.4
2017-10-14T00:56:08.455Z,952.4
2017-10-14T00:57:16.542Z,952.3
2017-10-14T00:58:24.629Z,952.3
2017-10-14T00:59:32.718Z,952.3
2017-10-14T01:00:40.860Z,952.3
2017-10-14T01:01:48.973Z,952.3
2017-10-14T01:02:56.997Z,952.3
2017-10-14T01:04:05.088Z,952.3
2017-10-14T01:05:13.175Z,952.3
2017-10-14T01:06:21.491Z,952.3
2017-10-14T01:07:29.350Z,952.2
2017-10-14T01:08:37.442Z,952.3
2017-10-14T01:09:45.525Z,952.2
2017-10-14T01:10:53.684Z,952.2
2017-10-14T01:12:01.757Z,952.2
2017-10-14T01:13:09.788Z,952.2
2017-10-14T01:14:17.875Z,952.2
2017-10-14T01:15:25.962Z,952.2
2017-10-14T01:16:34.050Z,952.2
2017-10-14T01:17:42.259Z,952.3
2017-10-14T01:18:50.223Z,952.3
2017-10-14T01:19:58.498Z,952.3
2017-10-14T01:21:06.402Z,952.3
2017-10-14T01:22:14.491Z,952.3
2017-10-14T01:23:22.698Z,952.3
2017-10-14T01:24:30.837Z,952.2
2017-10-14T01:25:38.750Z,952.2
2017-10-14T01:26:46.843Z,952.2
2017-10-14T01:27:54.925Z,952.2
2017-10-14T01:29:03.245Z,952.2
2017-10-14T01:30:11.103Z,952.2
2017-10-14T01:31:19.188Z,952.2
2017-10-14T01:32:27.275Z,952.2
2017-10-14T01:33:35.421Z,952.2
2017-10-14T01:34:43.506Z,952.1
2017-10-14T01:35:51.540Z,952.2
2017-10-14T01:36:59.642Z,952.1
2017-10-14T01:38:07.883Z,952.2
2017-10-14T01:39:15.802Z,952.2
2017-10-14T01:40:24.012Z,952.2
2017-10-14T01:41:31.996Z,952.2
2017-10-14T01:42:40.068Z,952.1
2017-10-14T01:43:48.154Z,952.1
2017-10-14T01:44:56.240Z,952.2
2017-10-14T01:46:04.390Z,952.2
2017-10-14T01:47:12.420Z,952.2
2017-10-14T01:48:20.506Z,952.2
2017-10-14T01:49:28.650Z,952.2
2017-10-14T01:50:36.680Z,952.2
2017-10-14T01:51:44.915Z,952.2
2017-10-14T01:52:52.854Z,952.2
2017-10-14T01:54:00.943Z,952.2
2017-10-14T01:55:09.032Z,952.2
2017-10-14T01:56:17.119Z,952.3
2017-10-14T01:57:25.267Z,952.2
2017-10-14T01:58:33.302Z,952.2
2017-10-14T01:59:41.383Z,952.2
2017-10-14T02:00:49.583Z,952.2
2017-10-14T02:01:57.571Z,952.2
2017-10-14T02:03:05.701Z,952.2
2017-10-14T02:04:13.738Z,952.2
2017-10-14T02:05:21.949Z,952.2
2017-10-14T02:06:29.913Z,952.2
2017-10-14T02:07:38.001Z,952.2
2017-10-14T02:08:46.218Z,952.2
2017-10-14T02:09:54.178Z,952.2
2017-10-14T02:11:02.334Z,952.2
2017-10-14T02:12:10.352Z,952.2
2017-10-14T02:13:18.440Z,952.1
2017-10-14T02:14:26.808Z,952.1
2017-10-14T02:15:34.707Z,952.1
2017-10-14T02:16:42.791Z,952.1
2017-10-14T02:17:50.882Z,952.1
2017-10-14T02:18:58.968Z,952.1
2017-10-14T02:20:07.176Z,952.1
2017-10-14T02:21:15.199Z,952.1
2017-10-14T02:22:23.301Z,952.0
2017-10-14T02:23:31.390Z,952.0
2017-10-14T02:24:39.478Z,952.0
2017-10-14T02:25:47.623Z,952.0
2017-10-14T02:26:55.653Z,952.1
2017-10-14T02:28:03.741Z,952.1
2017-10-14T02:29:11.834Z,952.1
2017-10-14T02:30:19.916Z,952.1
2017-10-14T02:31:28.126Z,952.1
2017-10-14T02:32:36.288Z,952.0
2017-10-14T02:33:44.188Z,952.0
2017-10-14T02:34:52.270Z,952.0
2017-10-14T02:36:00.360Z,952.0
2017-10-14T02:37:08.506Z,952.0
2017-10-14T02:38:16.545Z,952.1
2017-10-14T02:39:24.633Z,952.0
2017-10-14T02:40:32.724Z,952.0
2017-10-14T02:41:40.806Z,952.0
2017-10-14T02:42:49.015Z,952.1
2017-10-14T02:43:56.982Z,952.1
2017-10-14T02:45:05.093Z,952.1
2017-10-14T02:46:13.335Z,952.0
2017-10-14T02:47:21.268Z,952.1
2017-10-14T02:48:29.411Z,952.1
2017-10-14T02:49:37.448Z,952.1
2017-10-14T02:50:45.688Z,952.2
2017-10-14T02:51:53.620Z,952.2
2017-10-14T02:53:01.845Z,952.2
2017-10-14T02:54:09.864Z,952.2
2017-10-14T02:55:17.912Z,952.2
2017-10-14T02:56:25.982Z,952.2
2017-10-14T02:57:34.076Z,952.2
2017-10-14T02:58:42.158Z,952.3
2017-10-14T02:59:50.369Z,952.3
2017-10-14T03:00:58.345Z,952.2
2017-10-14T03:02:06.435Z,952.3
2017-10-14T03:03:14.514Z,952.3
2017-10-14T03:04:22.604Z,952.3
2017-10-14T03:05:30.908Z,952.2
2017-10-14T03:06:38.785Z,952.2
2017-10-14T03:07:46.869Z,952.3
2017-10-14T03:08:55.076Z,952.3
2017-10-14T03:10:03.154Z,952.3
2017-10-14T03:11:11.186Z,952.3
2017-10-14T03:12:19.222Z,952.3
2017-10-14T03:13:27.305Z,952.3
2017-10-14T03:14:35.393Z,952.3
2017-10-14T03:15:43.481Z,952.3
2017-10-14T03:16:51.626Z,952.2
2017-10-14T03:17:59.803Z,952.2
2017-10-14T03:19:07.745Z,952.2
2017-10-14T03:20:15.846Z,952.3
2017-10-14T03:21:23.919Z,952.2
2017-10-14T03:22:32.070Z,952.2
2017-10-14T03:23:40.096Z,952.3
2017-10-14T03:24:48.370Z,952.3
2017-10-14T03:25:56.401Z,952.3
2017-10-14T03:27:04.676Z,952.3
2017-10-14T03:28:12.698Z,952.3
2017-10-14T03:29:20.665Z,952.3
2017-10-14T03:30:28.753Z,952.3
2017-10-14T03:31:36.925Z,952.3
2017-10-14T03:32:44.935Z,952.3
2017-10-14T03:33:53.081Z,952.4
2017-10-14T03:35:01.106Z,952.4
2017-10-14T03:36:09.376Z,952.4
2017-10-14T03:37:17.284Z,952.4
2017-10-14T03:38:25.370Z,952.3
2017-10-14T03:39:33.513Z,952.3
2017-10-14T03:40:41.664Z,952.4
2017-10-14T03:41:49.666Z,952.4
2017-10-14T03:42:57.747Z,952.4
2017-10-14T03:44:05.809Z,952.4
2017-10-14T03:45:13.953Z,952.3
2017-10-14T03:46:21.987Z,952.3
2017-10-14T03:47:30.076Z,952.4
2017-10-14T03:48:38.164Z,952.4
2017-10-14T03:49:46.248Z,952.3
2017-10-14T03:50:54.482Z,952.4
2017-10-14T03:52:02.435Z,952.4
2017-10-14T03:53:10.524Z,952.4
2017-10-14T03:54:18.721Z,952.4
2017-10-14T03:55:26.700Z,952.4
2017-10-14T03:56:34.843Z,952.4
2017-10-14T03:57:42.872Z,952.4
2017-10-14T03:58:51.091Z,952.4
2017-10-14T03:59:59.050Z,952.4
2017-10-14T04:01:07.227Z,952.4
2017-10-14T04:02:15.422Z,952.4
2017-10-14T04:03:23.431Z,952.4
2017-10-14T04:04:31.495Z,952.4
2017-10-14T04:05:39.576Z,952.4
2017-10-14T04:06:47.692Z,952.5
2017-10-14T04:07:55.837Z,952.4
2017-10-14T04:09:03.868Z,952.5
2017-10-14T04:10:11.955Z,952.5
2017-10-14T04:11:20.044Z,952.5
2017-10-14T04:12:28.252Z,952.5
2017-10-14T04:13:36.358Z,952.4
2017-10-14T04:14:44.323Z,952.4
2017-10-14T04:15:52.410Z,952.5
2017-10-14T04:17:00.540Z,952.5
2017-10-14T04:18:08.586Z,952.5
2017-10-14T04:19:16.732Z,952.5
2017-10-14T04:20:24.762Z,952.5
2017-10-14T04:21:32.852Z,952.5
2017-10-14T04:22:40.948Z,952.5
2017-10-14T04:23:49.037Z,952.5
2017-10-14T04:24:57.263Z,952.5
2017-10-14T04:26:05.416Z,952.5
2017-10-14T04:27:13.386Z,952.5
2017-10-14T04:28:23.582Z,952.5
2017-10-14T04:29:29.563Z,952.5
2017-10-14T04:30:37.771Z,952.5
2017-10-14T04:31:45.739Z,952.5
2017-10-14T04:32:53.824Z,952.5
2017-10-14T04:34:01.913Z,952.5
2017-10-14T04:35:10.128Z,952.5
2017-10-14T04:36:18.145Z,952.5
2017-10-14T04:37:26.177Z,952.5
2017-10-14T04:38:34.688Z,952.5
2017-10-14T04:39:42.692Z,952.5
2017-10-14T04:40:50.775Z,952.5
2017-10-14T04:41:58.980Z,952.5
2017-10-14T04:43:06.950Z,952.4
2017-10-14T04:44:15.464Z,952.5
2017-10-14T04:45:23.615Z,952.5
2017-10-14T04:46:31.583Z,952.5
2017-10-14T04:47:39.813Z,952.5
2017-10-14T04:48:47.761Z,952.5
2017-10-14T04:49:56.137Z,952.5
2017-10-14T04:51:03.938Z,952.5
2017-10-14T04:52:12.024Z,952.5
2017-10-14T04:53:20.233Z,952.5
2017-10-14T04:54:28.308Z,952.5
2017-10-14T04:55:36.330Z,952.5
2017-10-14T04:56:44.733Z,952.5
2017-10-14T04:57:52.470Z,952.5
2017-10-14T04:59:01.063Z,952.4
2017-10-14T05:00:09.150Z,952.4
2017-10-14T05:01:16.733Z,952.4
2017-10-14T05:02:24.821Z,952.4
2017-10-14T05:03:33.084Z,952.4
2017-10-14T05:04:41.116Z,952.4
2017-10-14T05:05:49.089Z,952.4
2017-10-14T05:06:57.170Z,952.4
2017-10-14T05:08:05.261Z,952.4
2017-10-14T05:09:13.453Z,952.4
2017-10-14T05:10:21.492Z,952.4
2017-10-14T05:11:30.024Z,952.4
2017-10-14T05:12:37.610Z,952.5
2017-10-14T05:13:45.786Z,952.4
2017-10-14T05:14:54.191Z,952.4
2017-10-14T05:16:01.928Z,952.4
2017-10-14T05:17:09.958Z,952.4
2017-10-14T05:18:18.383Z,952.4
2017-10-14T05:19:26.146Z,952.4
2017-10-14T05:20:34.229Z,952.4
2017-10-14T05:21:42.436Z,952.4
2017-10-14T05:22:50.403Z,952.4
2017-10-14T05:23:58.501Z,952.4
2017-10-14T05:25:07.320Z,952.4
2017-10-14T05:26:14.674Z,952.4
2017-10-14T05:27:22.810Z,952.4
2017-10-14T05:28:30.841Z,952.4
2017-10-14T05:29:38.929Z,952.4
2017-10-14T05:30:47.466Z,952.5
2017-10-14T05:31:56.067Z,952.4
2017-10-14T05:33:03.311Z,952.5
2017-10-14T05:34:11.279Z,952.5
2017-10-14T05:35:19.377Z,952.5
2017-10-14T05:36:27.506Z,952.5
2017-10-14T05:37:35.639Z,952.5
2017-10-14T05:38:43.703Z,952.5
2017-10-14T05:39:51.736Z,952.5
2017-10-14T05:40:59.821Z,952.5
2017-10-14T05:42:07.910Z,952.6
2017-10-14T05:43:15.998Z,952.5
2017-10-14T05:44:24.143Z,952.6
2017-10-14T05:45:32.195Z,952.6
2017-10-14T05:46:40.259Z,952.6
2017-10-14T05:47:48.467Z,952.6
2017-10-14T05:48:56.434Z,952.6
2017-10-14T05:50:04.696Z,952.6
2017-10-14T05:51:12.608Z,952.6
2017-10-14T05:52:20.700Z,952.6
2017-10-14T05:53:28.973Z,952.7
2017-10-14T05:54:36.871Z,952.7
2017-10-14T05:55:45.017Z,952.7
2017-10-14T05:56:53.140Z,952.7
2017-10-14T05:58:01.137Z,952.7
2017-10-14T05:59:09.294Z,952.7
2017-10-14T06:00:17.315Z,952.7
2017-10-14T06:01:25.650Z,952.7
2017-10-14T06:02:33.490Z,952.7
2017-10-14T06:03:41.789Z,952.7
2017-10-14T06:04:49.665Z,952.8
2017-10-14T06:05:57.820Z,952.8
2017-10-14T06:07:05.898Z,952.8
2017-10-14T06:08:14.065Z,952.8
2017-10-14T06:09:22.010Z,952.8
2017-10-14T06:10:30.098Z,952.8
2017-10-14T06:11:38.186Z,952.8
2017-10-14T06:12:46.537Z,952.9
2017-10-14T06:13:54.362Z,952.9
2017-10-14T06:15:02.519Z,952.9
2017-10-14T06:16:10.535Z,952.9
2017-10-14T06:17:18.621Z,952.9
2017-10-14T06:18:26.764Z,953.0
2017-10-14T06:19:34.916Z,953.0
2017-10-14T06:20:42.981Z,952.9
2017-10-14T06:21:50.971Z,953.0
2017-10-14T06:22:59.062Z,953.0
2017-10-14T06:24:07.203Z,953.0
2017-10-14T06:25:15.237Z,953.0
2017-10-14T06:26:23.325Z,953.0
2017-10-14T06:27:31.406Z,953.0
2017-10-14T06:28:39.519Z,953.1
2017-10-14T06:29:47.702Z,953.0
2017-10-14T06:30:55.670Z,953.0
2017-10-14T06:32:03.757Z,953.0
2017-10-14T06:33:11.842Z,953.0
2017-10-14T06:34:19.931Z,953.0
2017-10-14T06:35:28.388Z,953.0
2017-10-14T06:36:36.106Z,953.0
2017-10-14T06:37:44.194Z,953.1
2017-10-14T06:38:52.278Z,953.1
2017-10-14T06:40:01.415Z,953.1
2017-10-14T06:41:09.437Z,953.1
2017-10-14T06:42:16.541Z,953.1
2017-10-14T06:43:24.623Z,953.1
2017-10-14T06:44:32.734Z,953.1
2017-10-14T06:45:40.807Z,953.1
2017-10-14T06:46:48.945Z,953.1
2017-10-14T06:47:56.975Z,953.0
2017-10-14T06:49:05.171Z,953.1
2017-10-14T06:50:13.171Z,953.1
2017-10-14T06:51:21.300Z,953.1
2017-10-14T06:52:29.386Z,953.1
2017-10-14T06:53:37.584Z,953.1
2017-10-14T06:54:46.137Z,953.1
2017-10-14T06:55:53.586Z,953.1
2017-10-14T06:57:01.678Z,953.1
2017-10-14T06:58:09.820Z,953.1
2017-10-14T06:59:17.854Z,953.1
2017-10-14T07:00:26.133Z,953.1
2017-10-14T07:01:34.029Z,953.1
2017-10-14T07:02:42.122Z,953.2
2017-10-14T07:03:50.342Z,953.2
2017-10-14T07:04:58.304Z,953.2
2017-10-14T07:06:06.385Z,953.2
2017-10-14T07:07:14.530Z,953.1
2017-10-14T07:08:22.703Z,953.1
2017-10-14T07:09:30.768Z,953.2
2017-10-14T07:10:38.734Z,953.2
2017-10-14T07:11:47.412Z,953.2
2017-10-14T07:12:55.566Z,953.1
2017-10-14T07:14:03.125Z,953.2
2017-10-14T07:15:11.339Z,953.2
2017-10-14T07:16:19.515Z,953.2
2017-10-14T07:17:27.527Z,953.2
2017-10-14T07:18:35.357Z,953.1
2017-10-14T07:19:43.881Z,953.2
2017-10-14T07:20:51.639Z,953.2
2017-10-14T07:21:59.610Z,953.2
2017-10-14T07:23:07.755Z,953.2
2017-10-14T07:24:15.797Z,953.2
2017-10-14T07:25:23.877Z,953.2
2017-10-14T07:26:32.018Z,953.1
2017-10-14T07:27:40.049Z,953.2
2017-10-14T07:28:48.155Z,953.2
2017-10-14T07:29:56.221Z,953.2
2017-10-14T07:31:04.316Z,953.2
2017-10-14T07:32:12.525Z,953.3
2017-10-14T07:33:20.584Z,953.2
2017-10-14T07:34:28.712Z,953.2
2017-10-14T07:35:36.696Z,953.2
2017-10-14T07:36:44.817Z,953.3
2017-10-14T07:37:53.493Z,953.2
2017-10-14T07:39:01.052Z,953.3
2017-10-14T07:40:09.060Z,953.3
2017-10-14T07:41:17.223Z,953.2
2017-10-14T07:42:25.353Z,953.2
2017-10-14T07:43:33.336Z,953.2
2017-10-14T07:44:41.367Z,953.2
2017-10-14T07:45:49.455Z,953.3
2017-10-14T07:46:58.159Z,953.2
2017-10-14T07:48:05.637Z,953.3
2017-10-14T07:49:13.770Z,953.2
2017-10-14T07:50:21.802Z,953.3
2017-10-14T07:51:30.094Z,953.2
2017-10-14T07:52:37.976Z,953.3
2017-10-14T07:53:46.063Z,953.3
2017-10-14T07:54:54.269Z,953.3
2017-10-14T07:56:02.236Z,953.3
2017-10-14T07:57:10.329Z,953.3
2017-10-14T07:58:18.408Z,953.3
2017-10-14T07:59:26.655Z,953.3
2017-10-14T08:00:34.645Z,953.2
2017-10-14T08:01:42.674Z,953.2
2017-10-14T08:02:50.763Z,953.3
2017-10-14T08:03:58.848Z,953.2
2017-10-14T08:05:06.939Z,953.2
2017-10-14T08:06:15.079Z,953.2
2017-10-14T08:07:23.304Z,953.3
2017-10-14T08:08:31.197Z,953.2
2017-10-14T08:09:39.332Z,953.2
2017-10-14T08:10:47.476Z,953.2
2017-10-14T08:11:55.896Z,953.2
2017-10-14T08:13:03.599Z,953.2
2017-10-14T08:14:11.680Z,953.3
2017-10-14T08:15:19.766Z,953.2
2017-10-14T08:16:27.859Z,953.2
2017-10-14T08:17:36.000Z,953.3
2017-10-14T08:18:44.031Z,953.3
2017-10-14T08:19:52.114Z,953.3
2017-10-14T08:21:00.371Z,953.3
2017-10-14T08:22:08.289Z,953.3
2017-10-14T08:23:16.430Z,953.3
2017-10-14T08:24:24.459Z,953.3
2017-10-14T08:25:32.547Z,953.3
2017-10-14T08:26:40.764Z,953.3
2017-10-14T08:27:49.186Z,953.3
2017-10-14T08:28:57.003Z,953.2
2017-10-14T08:30:05.071Z,953.3
2017-10-14T08:31:13.126Z,953.3
2017-10-14T08:32:21.083Z,953.3
2017-10-14T08:33:29.171Z,953.2
2017-10-14T08:34:37.314Z,953.3
2017-10-14T08:35:45.519Z,953.3
2017-10-14T08:36:53.468Z,953.3
2017-10-14T08:38:01.520Z,953.3
2017-10-14T08:39:09.616Z,953.3
2017-10-14T08:40:17.811Z,953.3
2017-10-14T08:41:25.785Z,953.3
2017-10-14T08:42:33.928Z,953.3
2017-10-14T08:43:41.959Z,953.3
2017-10-14T08:44:50.047Z,953.3
2017-10-14T08:45:58.191Z,953.3
2017-10-14T08:47:06.570Z,953.3
2017-10-14T08:48:14.306Z,953.3
2017-10-14T08:49:22.441Z,953.4
2017-10-14T08:50:30.503Z,953.4
2017-10-14T08:51:38.816Z,953.4
2017-10-14T08:52:46.655Z,953.4
2017-10-14T08:53:54.793Z,953.4
2017-10-14T08:55:02.831Z,953.3
2017-10-14T08:56:10.919Z,953.4
2017-10-14T08:57:19.057Z,953.4
2017-10-14T08:58:27.199Z,953.4
2017-10-14T08:59:35.172Z,953.4
2017-10-14T09:00:43.260Z,953.4
2017-10-14T09:01:51.346Z,953.4
2017-10-14T09:02:59.541Z,953.4
2017-10-14T09:04:07.521Z,953.4
2017-10-14T09:05:15.607Z,953.4
2017-10-14T09:06:23.694Z,953.3
2017-10-14T09:07:31.784Z,953.3
2017-10-14T09:08:39.942Z,953.3
2017-10-14T09:09:47.953Z,953.3
2017-10-14T09:10:56.038Z,953.3
2017-10-14T09:12:04.260Z,953.3
2017-10-14T09:13:12.214Z,953.3
2017-10-14T09:14:20.357Z,953.2
2017-10-14T09:15:28.387Z,953.2
2017-10-14T09:16:36.472Z,953.3
2017-10-14T09:17:44.732Z,953.2
2017-10-14T09:18:52.644Z,953.2
2017-10-14T09:20:01.053Z,953.2
2017-10-14T09:21:08.818Z,953.2
2017-10-14T09:22:16.904Z,953.3
2017-10-14T09:23:24.991Z,953.2
2017-10-14T09:24:33.078Z,953.2
2017-10-14T09:25:41.250Z,953.2
2017-10-14T09:26:49.257Z,953.2
2017-10-14T09:27:57.335Z,953.2
2017-10-14T09:29:05.422Z,953.2
2017-10-14T09:30:13.565Z,953.2
2017-10-14T09:31:21.652Z,953.2
2017-10-14T09:32:29.682Z,953.2
2017-10-14T09:33:37.776Z,953.2
2017-10-14T09:34:45.873Z,953.2
2017-10-14T09:35:53.949Z,953.2
2017-10-14T09:37:02.156Z,953.2
2017-10-14T09:38:10.121Z,953.2
2017-10-14T09:39:18.208Z,953.2
2017-10-14T09:40:26.363Z,953.2
2017-10-14T09:41:34.388Z,953.2
2017-10-14T09:42:42.604Z,953.2
2017-10-14T09:43:50.570Z,953.2
2017-10-14T09:44:58.657Z,953.2
2017-10-14T09:46:06.798Z,953.2
2017-10-14T09:47:14.829Z,953.2
2017-10-14T09:48:22.971Z,953.2
2017-10-14T09:49:31.052Z,953.2
2017-10-14T09:50:39.089Z,953.2
2017-10-14T09:51:47.178Z,953.2
2017-10-14T09:52:55.264Z,953.2
2017-10-14T09:54:03.609Z,953.2
2017-10-14T09:55:11.446Z,953.2
2017-10-14T09:56:19.538Z,953.2
2017-10-14T09:57:27.624Z,953.2
2017-10-14T09:58:35.781Z,953.2
2017-10-14T09:59:43.923Z,953.3
2017-10-14T10:00:51.952Z,953.2
2017-10-14T10:02:00.096Z,953.2
2017-10-14T10:03:08.166Z,953.2
2017-10-14T10:04:16.213Z,953.2
2017-10-14T10:05:24.351Z,953.2
2017-10-14T10:06:32.581Z,953.2
2017-10-14T10:07:40.500Z,953.2
2017-10-14T10:08:48.555Z,953.2
2017-10-14T10:09:56.869Z,953.2
2017-10-14T10:11:05.259Z,953.2
2017-10-14T10:12:13.047Z,953.2
2017-10-14T10:13:21.130Z,953.2
2017-10-14T10:14:29.216Z,953.2
2017-10-14T10:15:37.302Z,953.2
2017-10-14T10:16:45.445Z,953.2
2017-10-14T10:17:53.531Z,953.2
2017-10-14T10:19:01.562Z,953.2
2017-10-14T10:20:09.680Z,953.2
2017-10-14T10:21:17.734Z,953.2
2017-10-14T10:22:25.878Z,953.2
2017-10-14T10:23:33.910Z,953.2
2017-10-14T10:24:42.106Z,953.2
2017-10-14T10:25:50.123Z,953.2
2017-10-14T10:26:58.170Z,953.2
2017-10-14T10:28:06.308Z,953.1
2017-10-14T10:29:14.441Z,953.1
2017-10-14T10:30:22.425Z,953.1
2017-10-14T10:31:30.511Z,953.1
2017-10-14T10:32:38.599Z,953.1
2017-10-14T10:33:46.740Z,953.1
2017-10-14T10:34:54.772Z,953.1
2017-10-14T10:36:02.856Z,953.1
2017-10-14T10:37:10.945Z,953.0
2017-10-14T10:38:19.031Z,953.0
2017-10-14T10:39:27.280Z,953.0
2017-10-14T10:40:35.204Z,953.0
2017-10-14T10:41:43.289Z,953.0
2017-10-14T10:42:51.382Z,953.0
2017-10-14T10:43:59.468Z,953.0
2017-10-14T10:45:07.610Z,953.0
2017-10-14T10:46:15.641Z,953.0
2017-10-14T10:47:23.739Z,953.0
2017-10-14T10:48:31.830Z,953.0
2017-10-14T10:49:39.980Z,953.0
2017-10-14T10:50:48.060Z,953.0
2017-10-14T10:51:56.096Z,953.0
2017-10-14T10:53:04.184Z,953.0
2017-10-14T10:54:12.273Z,953.0
2017-10-14T10:55:20.361Z,952.9
2017-10-14T10:56:28.502Z,953.0
2017-10-14T10:57:36.535Z,953.0
2017-10-14T10:58:44.631Z,952.9
2017-10-14T10:59:52.704Z,952.9
2017-10-14T11:01:00.790Z,952.9
2017-10-14T11:02:09.054Z,952.9
2017-10-14T11:03:17.023Z,952.9
2017-10-14T11:04:25.106Z,952.9
2017-10-14T11:05:33.247Z,952.9
2017-10-14T11:06:41.276Z,952.9
2017-10-14T11:07:49.418Z,952.9
2017-10-14T11:08:57.450Z,952.9
2017-10-14T11:10:05.537Z,952.9
2017-10-14T11:11:13.680Z,952.9
2017-10-14T11:12:21.831Z,952.8
2017-10-14T11:13:29.854Z,952.8
2017-10-14T11:14:37.884Z,952.8
2017-10-14T11:15:46.118Z,952.8
2017-10-14T11:16:54.059Z,952.8
2017-10-14T11:18:02.141Z,952.8
2017-10-14T11:19:10.282Z,952.8
2017-10-14T11:20:18.314Z,952.8
2017-10-14T11:21:26.521Z,952.7
2017-10-14T11:22:34.488Z,952.7
2017-10-14T11:23:42.573Z,952.7
2017-10-14T11:24:50.828Z,952.7
2017-10-14T11:25:58.742Z,952.7
2017-10-14T11:27:06.830Z,952.7
2017-10-14T11:28:15.098Z,952.7
2017-10-14T11:29:23.123Z,952.7
2017-10-14T11:30:31.340Z,952.6
2017-10-14T11:31:39.175Z,952.6
2017-10-14T11:32:47.261Z,952.6
2017-10-14T11:33:55.346Z,952.6
2017-10-14T11:35:03.497Z,952.6
2017-10-14T11:36:11.575Z,952.6
2017-10-14T11:37:19.660Z,952.6
2017-10-14T11:38:27.849Z,952.5
2017-10-14T11:39:35.779Z,952.5
2017-10-14T11:40:43.864Z,952.5
2017-10-14T11:41:52.090Z,952.5
2017-10-14T11:43:00.157Z,952.5
2017-10-14T11:44:08.123Z,952.5
2017-10-14T11:45:16.210Z,952.5
2017-10-14T11:46:24.293Z,952.4
2017-10-14T11:47:32.571Z,952.4
2017-10-14T11:48:40.466Z,952.4
2017-10-14T11:49:48.553Z,952.4
2017-10-14T11:50:56.648Z,952.4
2017-10-14T11:52:04.735Z,952.5
2017-10-14T11:53:12.877Z,952.5
2017-10-14T11:54:20.922Z,952.4
2017-10-14T11:55:29.003Z,952.5
2017-10-14T11:56:37.090Z,952.4
2017-10-14T11:57:45.186Z,952.4
2017-10-14T11:58:53.319Z,952.4
2017-10-14T12:00:01.348Z,952.4
2017-10-14T12:01:09.434Z,952.4
2017-10-14T12:02:17.578Z,952.4
2017-10-14T12:03:25.611Z,952.4
2017-10-14T12:04:33.756Z,952.4
2017-10-14T12:05:41.788Z,952.4
2017-10-14T12:06:49.872Z,952.4
2017-10-14T12:07:57.969Z,952.4
2017-10-14T12:09:06.097Z,952.4
2017-10-14T12:10:14.192Z,952.4
2017-10-14T12:11:22.259Z,952.4
2017-10-14T12:12:30.307Z,952.3
2017-10-14T12:13:38.392Z,952.3
2017-10-14T12:14:46.488Z,952.3
2017-10-14T12:15:54.653Z,952.3
2017-10-14T12:17:02.654Z,952.3
2017-10-14T12:18:10.739Z,952.3
2017-10-14T12:19:18.826Z,952.3
2017-10-14T12:20:26.913Z,952.3
2017-10-14T12:21:35.055Z,952.3
2017-10-14T12:22:43.087Z,952.3
2017-10-14T12:23:51.171Z,952.3
2017-10-14T12:24:59.360Z,952.3
2017-10-14T12:26:07.440Z,952.3
2017-10-14T12:27:15.484Z,952.3
2017-10-14T12:28:23.521Z,952.3
2017-10-14T12:29:31.660Z,952.3
2017-10-14T12:30:39.695Z,952.2
2017-10-14T12:31:47.783Z,952.2
2017-10-14T12:32:55.924Z,952.2
2017-10-14T12:34:03.954Z,952.3
2017-10-14T12:35:12.039Z,952.2
2017-10-14T12:36:20.132Z,952.2
2017-10-14T12:37:28.212Z,952.3
2017-10-14T12:38:36.483Z,952.3
2017-10-14T12:39:44.385Z,952.3
2017-10-14T12:40:52.592Z,952.2
2017-10-14T12:42:00.556Z,952.2
2017-10-14T12:43:08.646Z,952.3
2017-10-14T12:44:16.786Z,952.2
2017-10-14T12:45:24.812Z,952.3
2017-10-14T12:46:32.898Z,952.2
2017-10-14T12:47:40.994Z,952.2
2017-10-14T12:48:49.071Z,952.2
2017-10-14T12:49:57.214Z,952.2
2017-10-14T12:51:05.268Z,952.3
2017-10-14T12:52:13.359Z,952.3
2017-10-14T12:53:21.413Z,952.2
2017-10-14T12:54:29.500Z,952.2
2017-10-14T12:55:37.706Z,952.3
2017-10-14T12:56:45.915Z,952.2
2017-10-14T12:57:53.757Z,952.2
2017-10-14T12:59:01.843Z,952.2
2017-10-14T13:00:09.929Z,952.2
2017-10-14T13:01:18.182Z,952.2
2017-10-14T13:02:26.102Z,952.2
2017-10-14T13:03:34.186Z,952.2
2017-10-14T13:04:42.274Z,952.2
2017-10-14T13:05:50.357Z,952.2
2017-10-14T13:06:58.499Z,952.2
2017-10-14T13:08:06.538Z,952.1
2017-10-14T13:09:14.623Z,952.1
2017-10-14T13:10:22.706Z,952.1
2017-10-14T13:11:30.789Z,952.1
2017-10-14T13:12:38.931Z,952.1
2017-10-14T13:13:46.963Z,952.1
2017-10-14T13:14:55.053Z,952.1
2017-10-14T13:16:03.201Z,952.1
2017-10-14T13:17:11.220Z,952.1
2017-10-14T13:18:19.358Z,952.1
2017-10-14T13:19:27.388Z,952.1
2017-10-14T13:20:35.650Z,952.1
2017-10-14T13:21:43.562Z,952.1
2017-10-14T13:22:51.646Z,952.1
2017-10-14T13:23:59.787Z,952.1
2017-10-14T13:25:07.824Z,952.1
2017-10-14T13:26:15.904Z,952.0
2017-10-14T13:27:23.989Z,952.1
2017-10-14T13:28:32.133Z,952.0
2017-10-14T13:29:40.219Z,952.1
2017-10-14T13:30:48.247Z,952.0
2017-10-14T13:31:56.334Z,952.0
2017-10-14T13:33:04.419Z,952.0
2017-10-14T13:34:12.507Z,952.0
2017-10-14T13:35:20.841Z,952.0
2017-10-14T13:36:28.681Z,952.0
2017-10-14T13:37:36.774Z,952.0
2017-10-14T13:38:44.862Z,952.0
2017-10-14T13:39:52.948Z,952.0
2017-10-14T13:41:01.092Z,952.0
2017-10-14T13:42:09.120Z,952.0
2017-10-14T13:43:17.346Z,952.0
2017-10-14T13:44:25.351Z,952.0
2017-10-14T13:45:33.379Z,952.0
2017-10-14T13:46:41.518Z,952.0
2017-10-14T13:47:49.608Z,952.0
2017-10-14T13:48:57.637Z,952.0
2017-10-14T13:50:05.725Z,952.0
2017-10-14T13:51:13.818Z,952.0
2017-10-14T13:52:21.949Z,952.0
2017-10-14T13:53:29.978Z,952.0
2017-10-14T13:54:38.065Z,952.0
2017-10-14T13:55:46.152Z,952.0
2017-10-14T13:56:54.236Z,952.0
2017-10-14T13:58:02.485Z,952.0
2017-10-14T13:59:10.407Z,952.0
2017-10-14T14:00:18.549Z,952.0
2017-10-14T14:01:26.588Z,952.0
2017-10-14T14:02:34.673Z,952.0
2017-10-14T14:03:42.847Z,952.0
2017-10-14T14:04:50.871Z,952.0
2017-10-14T14:05:58.955Z,952.0
2017-10-14T14:07:07.044Z,951.9
2017-10-14T14:08:15.144Z,951.9
2017-10-14T14:09:23.279Z,951.9
2017-10-14T14:10:31.488Z,951.9
2017-10-14T14:11:39.414Z,951.9
2017-10-14T14:12:47.495Z,951.9
2017-10-14T14:13:55.581Z,951.9
2017-10-14T14:15:03.905Z,951.9
2017-10-14T14:16:11.811Z,951.9
2017-10-14T14:17:19.847Z,951.9
2017-10-14T14:18:27.930Z,951.9
2017-10-14T14:19:36.200Z,951.9
2017-10-14T14:20:44.170Z,951.9
2017-10-14T14:21:52.193Z,951.9
2017-10-14T14:23:00.285Z,951.9
2017-10-14T14:24:08.523Z,951.9
2017-10-14T14:25:16.581Z,951.8
2017-10-14T14:26:24.600Z,951.8
2017-10-14T14:27:32.633Z,951.8
2017-10-14T14:28:40.717Z,951.8
2017-10-14T14:29:48.817Z,951.8
2017-10-14T14:30:56.901Z,951.8
2017-10-14T14:32:05.043Z,951.8
2017-10-14T14:33:13.070Z,951.8
2017-10-14T14:34:21.159Z,951.8
2017-10-14T14:35:29.244Z,951.8
2017-10-14T14:36:37.437Z,951.8